Ksl Sapporo — VRNH7 — position and weather

sailwx.info

Track history (hours):
 
Tides and Currents Weather Stations Pressure Air Temp Water Temp Dewpoint Dewpoint Depression Visibility Wind Speed Wind Dir Waves Ship Positions

Ksl Sapporo

Last reported at 2018-May-21 18:48 UTC. Time now 2018-May-24 14:08 UTC.
Position N 38°04' E 122°16'.

Length 292 m; draft 8.9 m.

Type: Cargo ship. MMSI: 477271100.

Date/timePositionNaut miles runAvg speedWind from/ knotsBaromVisibWave heightAir tempDewpointWater temp
2018-May-21 18:48N 38°04' E 122°16'510.8
2018-May-21 18:19N 38°06' E 122°10'410.7
2018-May-21 17:59N 38°08' E 122°06'2110.7
2018-May-21 16:03N 38°16' E 121°41'210.5
2018-May-21 15:54N 38°17' E 121°39'610.8
2018-May-21 15:20N 38°19' E 121°32'610.9
2018-May-21 14:48N 38°21' E 121°26'310.7
2018-May-21 14:29N 38°23' E 121°22'510.6
2018-May-21 14:00N 38°25' E 121°16'510.4
2018-May-21 13:30N 38°27' E 121°10'5 9.9
2018-May-21 13:00N 38°29' E 121°04'5 9.3
2018-May-21 12:30N 38°31' E 120°59'5 9.2
2018-May-21 12:00N 38°33' E 120°53'5 9.0
2018-May-21 11:29N 38°35' E 120°48'5 9.2
2018-May-21 10:59N 38°37' E 120°43'4 9.1
2018-May-21 10:30N 38°38' E 120°37'4 8.7
2018-May-21 10:00N 38°40' E 120°32'4 8.7
2018-May-21 09:30N 38°41' E 120°27'4 8.7
2018-May-21 09:00N 38°43' E 120°22'4 8.6
2018-May-21 08:30N 38°45' E 120°17'4 8.6
2018-May-21 08:00N 38°46' E 120°11'4 8.8
2018-May-21 07:30N 38°47' E 120°06'4 8.8
2018-May-21 07:00N 38°48' E 120°01'5 9.1
2018-May-21 06:30N 38°51' E 119°55'5 9.6
2018-May-21 06:00N 38°52' E 119°50'3510.3
2018-May-21 02:34N 39°06' E 119°08'110.2
2018-May-21 02:27N 39°07' E 119°07'  
2018-May-14 20:52N 38°17' E 121°45'411.0
2018-May-14 20:30N 38°15' E 121°50'611.1
2018-May-14 20:00N 38°13' E 121°56'511.0
2018-May-14 19:30N 38°10' E 122°02'611.0
2018-May-14 18:59N 38°08' E 122°09'511.0
2018-May-14 18:29N 38°05' E 122°15'510.8
2018-May-14 18:00N 38°03' E 122°21'4 8.7
2018-May-14 17:30N 38°03' E 122°27'1010.5
2018-May-14 16:31N 37°58' E 122°38'110.3
2018-May-14 16:25N 37°57' E 122°40'510.5
2018-May-14 15:57N 37°56' E 122°45'510.3
2018-May-14 15:30N 37°53' E 122°51'510.1
2018-May-14 15:00N 37°51' E 122°56'5 9.7
2018-May-14 14:30N 37°48' E 123°01'710.1
2018-May-14 13:46N 37°42' E 123°07'510.6
2018-May-14 13:19N 37°39' E 123°11'510.8
2018-May-14 12:50N 37°35' E 123°16'511.0
2018-May-14 12:24N 37°31' E 123°19'411.4
2018-May-14 12:00N 37°27' E 123°21'611.6
2018-May-14 11:29N 37°22' E 123°26'611.8
2018-May-14 10:56N 37°17' E 123°30'512.0
2018-May-14 10:30N 37°12' E 123°34'812.2
2018-May-14 09:52N 37°05' E 123°38'712.6
2018-May-14 09:20N 36°59' E 123°42'28112.2
2018-May-13 10:19N 32°19' E 123°49'611.1
2018-May-13 09:48N 32°13' E 123°50'  
Track history (hours):
 
Tides and Currents Weather Stations Pressure Air Temp Water Temp Dewpoint Dewpoint Depression Visibility Wind Speed Wind Dir Waves Ship Positions

Ksl Sapporo

Last reported at 2018-May-21 18:48 UTC. Time now 2018-May-24 14:08 UTC.
Position N 38°04' E 122°16'.

Length 292 m; draft 8.9 m.

Type: Cargo ship. MMSI: 477271100.

Date/timePositionNaut miles runAvg speedWind from/ knotsBaromVisibWave heightAir tempDewpointWater temp
2018-May-21 18:48N 38°04' E 122°16'510.8
2018-May-21 18:19N 38°06' E 122°10'410.7
2018-May-21 17:59N 38°08' E 122°06'2110.7
2018-May-21 16:03N 38°16' E 121°41'210.5
2018-May-21 15:54N 38°17' E 121°39'610.8
2018-May-21 15:20N 38°19' E 121°32'610.9
2018-May-21 14:48N 38°21' E 121°26'310.7
2018-May-21 14:29N 38°23' E 121°22'510.6
2018-May-21 14:00N 38°25' E 121°16'510.4
2018-May-21 13:30N 38°27' E 121°10'5 9.9
2018-May-21 13:00N 38°29' E 121°04'5 9.3
2018-May-21 12:30N 38°31' E 120°59'5 9.2
2018-May-21 12:00N 38°33' E 120°53'5 9.0
2018-May-21 11:29N 38°35' E 120°48'5 9.2
2018-May-21 10:59N 38°37' E 120°43'4 9.1
2018-May-21 10:30N 38°38' E 120°37'4 8.7
2018-May-21 10:00N 38°40' E 120°32'4 8.7
2018-May-21 09:30N 38°41' E 120°27'4 8.7
2018-May-21 09:00N 38°43' E 120°22'4 8.6
2018-May-21 08:30N 38°45' E 120°17'4 8.6
2018-May-21 08:00N 38°46' E 120°11'4 8.8
2018-May-21 07:30N 38°47' E 120°06'4 8.8
2018-May-21 07:00N 38°48' E 120°01'5 9.1
2018-May-21 06:30N 38°51' E 119°55'5 9.6
2018-May-21 06:00N 38°52' E 119°50'3510.3
2018-May-21 02:34N 39°06' E 119°08'110.2
2018-May-21 02:27N 39°07' E 119°07'  
2018-May-14 20:52N 38°17' E 121°45'411.0
2018-May-14 20:30N 38°15' E 121°50'611.1
2018-May-14 20:00N 38°13' E 121°56'511.0
2018-May-14 19:30N 38°10' E 122°02'611.0
2018-May-14 18:59N 38°08' E 122°09'511.0
2018-May-14 18:29N 38°05' E 122°15'510.8
2018-May-14 18:00N 38°03' E 122°21'4 8.7
2018-May-14 17:30N 38°03' E 122°27'1010.5
2018-May-14 16:31N 37°58' E 122°38'110.3
2018-May-14 16:25N 37°57' E 122°40'510.5
2018-May-14 15:57N 37°56' E 122°45'510.3
2018-May-14 15:30N 37°53' E 122°51'510.1
2018-May-14 15:00N 37°51' E 122°56'5 9.7
2018-May-14 14:30N 37°48' E 123°01'710.1
2018-May-14 13:46N 37°42' E 123°07'510.6
2018-May-14 13:19N 37°39' E 123°11'510.8
2018-May-14 12:50N 37°35' E 123°16'511.0
2018-May-14 12:24N 37°31' E 123°19'411.4
2018-May-14 12:00N 37°27' E 123°21'611.6
2018-May-14 11:29N 37°22' E 123°26'611.8
2018-May-14 10:56N 37°17' E 123°30'512.0
2018-May-14 10:30N 37°12' E 123°34'812.2
2018-May-14 09:52N 37°05' E 123°38'712.6
2018-May-14 09:20N 36°59' E 123°42'28112.2
2018-May-13 10:19N 32°19' E 123°49'611.1
2018-May-13 09:48N 32°13' E 123°50'  

Dump ship's entire track history